<?xml version="1.0" encoding="utf-8"?>
<gpx xmlns:xsi="http://www.w3.org/2001/XMLSchema-instance" xmlns:xsd="http://www.w3.org/2001/XMLSchema" version="1.1" creator="Shapelink.com" xmlns="http://www.topografix.com/GPX/1/1" xmlns:gpxtpx="http://www.garmin.com/xmlschemas/TrackPointExtension/v1">
  <metadata>
    <name>Löpning 10.02 km, 2012-02-20</name>
    <desc></desc>
    <author><name>Dennis Rehn</name></author> 
    <time>2012-02-20T19:24:57Z</time>
  </metadata>
  <trk>
    <name>Löpning 10.02 km, 2012-02-20</name>
    <trkseg>
      <trkpt lat="59.9943447722" lon="23.4265627546">
        <ele>49.8</ele>
        <time>2012-02-20T19:24:57Z</time>
      </trkpt>
      <trkpt lat="59.994235556" lon="23.426343987">
        <ele>54</ele>
        <time>2012-02-20T19:25:03Z</time>
      </trkpt>
      <trkpt lat="59.9941394156" lon="23.4261032589">
        <ele>57.2</ele>
        <time>2012-02-20T19:25:08Z</time>
      </trkpt>
      <trkpt lat="59.9941404215" lon="23.4260475192">
        <ele>57.8</ele>
        <time>2012-02-20T19:25:09Z</time>
      </trkpt>
      <trkpt lat="59.9941970831" lon="23.4256603593">
        <ele>59.6</ele>
        <time>2012-02-20T19:25:16Z</time>
      </trkpt>
      <trkpt lat="59.9942955704" lon="23.4254218942">
        <ele>61</ele>
        <time>2012-02-20T19:25:21Z</time>
      </trkpt>
      <trkpt lat="59.9944007633" lon="23.4251883745">
        <ele>61.8</ele>
        <time>2012-02-20T19:25:26Z</time>
      </trkpt>
      <trkpt lat="59.9945113205" lon="23.4249543518">
        <ele>62.2</ele>
        <time>2012-02-20T19:25:31Z</time>
      </trkpt>
      <trkpt lat="59.9946751867" lon="23.4247645018">
        <ele>62</ele>
        <time>2012-02-20T19:25:36Z</time>
      </trkpt>
      <trkpt lat="59.9948253903" lon="23.4245554572">
        <ele>59.8</ele>
        <time>2012-02-20T19:25:42Z</time>
      </trkpt>
      <trkpt lat="59.9949735823" lon="23.424395782">
        <ele>57.4</ele>
        <time>2012-02-20T19:25:48Z</time>
      </trkpt>
      <trkpt lat="59.9951303239" lon="23.4242713108">
        <ele>54.8</ele>
        <time>2012-02-20T19:25:54Z</time>
      </trkpt>
      <trkpt lat="59.9952471676" lon="23.4241382062">
        <ele>52.6</ele>
        <time>2012-02-20T19:25:59Z</time>
      </trkpt>
      <trkpt lat="59.9952649372" lon="23.4238738411">
        <ele>50.6</ele>
        <time>2012-02-20T19:26:04Z</time>
      </trkpt>
      <trkpt lat="59.9952091137" lon="23.4235986633">
        <ele>49</ele>
        <time>2012-02-20T19:26:09Z</time>
      </trkpt>
      <trkpt lat="59.9951405498" lon="23.4233203843">
        <ele>47.2</ele>
        <time>2012-02-20T19:26:15Z</time>
      </trkpt>
      <trkpt lat="59.9950721535" lon="23.4230818354">
        <ele>45.8</ele>
        <time>2012-02-20T19:26:20Z</time>
      </trkpt>
      <trkpt lat="59.9950295734" lon="23.4227267781">
        <ele>44.6</ele>
        <time>2012-02-20T19:26:26Z</time>
      </trkpt>
      <trkpt lat="59.9950227003" lon="23.4223643447">
        <ele>43.2</ele>
        <time>2012-02-20T19:26:32Z</time>
      </trkpt>
      <trkpt lat="59.995026975" lon="23.4220592436">
        <ele>42.4</ele>
        <time>2012-02-20T19:26:37Z</time>
      </trkpt>
      <trkpt lat="59.9950465887" lon="23.4217147475">
        <ele>40.8</ele>
        <time>2012-02-20T19:26:43Z</time>
      </trkpt>
      <trkpt lat="59.9950558926" lon="23.4214772044">
        <ele>40</ele>
        <time>2012-02-20T19:26:47Z</time>
      </trkpt>
      <trkpt lat="59.9950505282" lon="23.42118937">
        <ele>39.4</ele>
        <time>2012-02-20T19:26:52Z</time>
      </trkpt>
      <trkpt lat="59.9950178388" lon="23.4209138569">
        <ele>38.4</ele>
        <time>2012-02-20T19:26:57Z</time>
      </trkpt>
      <trkpt lat="59.9949477661" lon="23.4205814308">
        <ele>37.6</ele>
        <time>2012-02-20T19:27:03Z</time>
      </trkpt>
      <trkpt lat="59.9948683057" lon="23.420319245">
        <ele>37.2</ele>
        <time>2012-02-20T19:27:08Z</time>
      </trkpt>
      <trkpt lat="59.9948096324" lon="23.4201093622">
        <ele>36.4</ele>
        <time>2012-02-20T19:27:12Z</time>
      </trkpt>
      <trkpt lat="59.99473847" lon="23.4198505291">
        <ele>35.6</ele>
        <time>2012-02-20T19:27:17Z</time>
      </trkpt>
      <trkpt lat="59.9946797967" lon="23.4196469328">
        <ele>35.2</ele>
        <time>2012-02-20T19:27:21Z</time>
      </trkpt>
      <trkpt lat="59.9946133283" lon="23.4193748563">
        <ele>35</ele>
        <time>2012-02-20T19:27:26Z</time>
      </trkpt>
      <trkpt lat="59.9945221332" lon="23.4189998501">
        <ele>34.8</ele>
        <time>2012-02-20T19:27:33Z</time>
      </trkpt>
      <trkpt lat="59.9944554133" lon="23.4187468005">
        <ele>34.6</ele>
        <time>2012-02-20T19:27:38Z</time>
      </trkpt>
      <trkpt lat="59.9943971591" lon="23.4185052342">
        <ele>34.6</ele>
        <time>2012-02-20T19:27:43Z</time>
      </trkpt>
      <trkpt lat="59.9943436825" lon="23.4182730555">
        <ele>34.6</ele>
        <time>2012-02-20T19:27:48Z</time>
      </trkpt>
      <trkpt lat="59.9942694189" lon="23.4179910884">
        <ele>34.6</ele>
        <time>2012-02-20T19:27:54Z</time>
      </trkpt>
      <trkpt lat="59.9941675788" lon="23.4177056847">
        <ele>34.6</ele>
        <time>2012-02-20T19:28:00Z</time>
      </trkpt>
      <trkpt lat="59.9940441134" lon="23.4175230431">
        <ele>34.6</ele>
        <time>2012-02-20T19:28:05Z</time>
      </trkpt>
      <trkpt lat="59.9939147807" lon="23.4174084625">
        <ele>34.6</ele>
        <time>2012-02-20T19:28:10Z</time>
      </trkpt>
      <trkpt lat="59.9937585421" lon="23.4172820635">
        <ele>34.6</ele>
        <time>2012-02-20T19:28:17Z</time>
      </trkpt>
      <trkpt lat="59.9936384295" lon="23.4171203766">
        <ele>34.6</ele>
        <time>2012-02-20T19:28:23Z</time>
      </trkpt>
      <trkpt lat="59.9935572927" lon="23.4169664011">
        <ele>34.6</ele>
        <time>2012-02-20T19:28:27Z</time>
      </trkpt>
      <trkpt lat="59.9934369286" lon="23.4166792372">
        <ele>34.6</ele>
        <time>2012-02-20T19:28:34Z</time>
      </trkpt>
      <trkpt lat="59.9933386089" lon="23.4164308816">
        <ele>34.6</ele>
        <time>2012-02-20T19:28:40Z</time>
      </trkpt>
      <trkpt lat="59.9932580589" lon="23.4162220884">
        <ele>34.6</ele>
        <time>2012-02-20T19:28:45Z</time>
      </trkpt>
      <trkpt lat="59.9931547939" lon="23.4159496767">
        <ele>33.6</ele>
        <time>2012-02-20T19:28:51Z</time>
      </trkpt>
      <trkpt lat="59.993072316" lon="23.4156993931">
        <ele>33.2</ele>
        <time>2012-02-20T19:28:56Z</time>
      </trkpt>
      <trkpt lat="59.9929989743" lon="23.4154714055">
        <ele>32.6</ele>
        <time>2012-02-20T19:29:01Z</time>
      </trkpt>
      <trkpt lat="59.9929423965" lon="23.4152723353">
        <ele>31.8</ele>
        <time>2012-02-20T19:29:05Z</time>
      </trkpt>
      <trkpt lat="59.9928703122" lon="23.4150137537">
        <ele>31.4</ele>
        <time>2012-02-20T19:29:10Z</time>
      </trkpt>
      <trkpt lat="59.9928124771" lon="23.4147175374">
        <ele>31</ele>
        <time>2012-02-20T19:29:16Z</time>
      </trkpt>
      <trkpt lat="59.9927667119" lon="23.4144590396">
        <ele>30.8</ele>
        <time>2012-02-20T19:29:21Z</time>
      </trkpt>
      <trkpt lat="59.9927402251" lon="23.4142392662">
        <ele>30.4</ele>
        <time>2012-02-20T19:29:25Z</time>
      </trkpt>
      <trkpt lat="59.9927364532" lon="23.4139690337">
        <ele>29.6</ele>
        <time>2012-02-20T19:29:30Z</time>
      </trkpt>
      <trkpt lat="59.9927507025" lon="23.4136911737">
        <ele>29.2</ele>
        <time>2012-02-20T19:29:35Z</time>
      </trkpt>
      <trkpt lat="59.9927584138" lon="23.4134865715">
        <ele>28.8</ele>
        <time>2012-02-20T19:29:39Z</time>
      </trkpt>
      <trkpt lat="59.9927964676" lon="23.4131630302">
        <ele>28.6</ele>
        <time>2012-02-20T19:29:45Z</time>
      </trkpt>
      <trkpt lat="59.9928163327" lon="23.4128379801">
        <ele>28.4</ele>
        <time>2012-02-20T19:29:51Z</time>
      </trkpt>
      <trkpt lat="59.9928429872" lon="23.4126187096">
        <ele>27.6</ele>
        <time>2012-02-20T19:29:55Z</time>
      </trkpt>
      <trkpt lat="59.9928626846" lon="23.412359206">
        <ele>27.2</ele>
        <time>2012-02-20T19:30:00Z</time>
      </trkpt>
      <trkpt lat="59.9928921889" lon="23.4121043124">
        <ele>26.8</ele>
        <time>2012-02-20T19:30:05Z</time>
      </trkpt>
      <trkpt lat="59.9928973857" lon="23.4119449725">
        <ele>26.6</ele>
        <time>2012-02-20T19:30:08Z</time>
      </trkpt>
      <trkpt lat="59.9929067734" lon="23.4117272945">
        <ele>26.6</ele>
        <time>2012-02-20T19:30:12Z</time>
      </trkpt>
      <trkpt lat="59.9928790293" lon="23.4114579003">
        <ele>26.2</ele>
        <time>2012-02-20T19:30:17Z</time>
      </trkpt>
      <trkpt lat="59.9928372037" lon="23.4111958821">
        <ele>25.4</ele>
        <time>2012-02-20T19:30:22Z</time>
      </trkpt>
      <trkpt lat="59.9927826375" lon="23.4110152521">
        <ele>25</ele>
        <time>2012-02-20T19:30:26Z</time>
      </trkpt>
      <trkpt lat="59.9926793725" lon="23.4106989192">
        <ele>24.6</ele>
        <time>2012-02-20T19:30:33Z</time>
      </trkpt>
      <trkpt lat="59.9926002473" lon="23.4104102466">
        <ele>23.6</ele>
        <time>2012-02-20T19:30:39Z</time>
      </trkpt>
      <trkpt lat="59.992531432" lon="23.4102126014">
        <ele>23</ele>
        <time>2012-02-20T19:30:43Z</time>
      </trkpt>
      <trkpt lat="59.9924609402" lon="23.4100347375">
        <ele>22.8</ele>
        <time>2012-02-20T19:30:47Z</time>
      </trkpt>
      <trkpt lat="59.9923451023" lon="23.4098339072">
        <ele>22.6</ele>
        <time>2012-02-20T19:30:53Z</time>
      </trkpt>
      <trkpt lat="59.9922401609" lon="23.4097124534">
        <ele>22.4</ele>
        <time>2012-02-20T19:30:58Z</time>
      </trkpt>
      <trkpt lat="59.9920903764" lon="23.4096050813">
        <ele>22.4</ele>
        <time>2012-02-20T19:31:04Z</time>
      </trkpt>
      <trkpt lat="59.9919719401" lon="23.4095601543">
        <ele>22.2</ele>
        <time>2012-02-20T19:31:09Z</time>
      </trkpt>
      <trkpt lat="59.9918500673" lon="23.4095221843">
        <ele>22.2</ele>
        <time>2012-02-20T19:31:14Z</time>
      </trkpt>
      <trkpt lat="59.9916959242" lon="23.4094811968">
        <ele>22.2</ele>
        <time>2012-02-20T19:31:20Z</time>
      </trkpt>
      <trkpt lat="59.9915377577" lon="23.409440377">
        <ele>22.2</ele>
        <time>2012-02-20T19:31:26Z</time>
      </trkpt>
      <trkpt lat="59.9913856262" lon="23.4094536204">
        <ele>22.2</ele>
        <time>2012-02-20T19:31:32Z</time>
      </trkpt>
      <trkpt lat="59.9912702075" lon="23.4095341704">
        <ele>22.2</ele>
        <time>2012-02-20T19:31:37Z</time>
      </trkpt>
      <trkpt lat="59.9910859733" lon="23.409714046">
        <ele>22.2</ele>
        <time>2012-02-20T19:31:45Z</time>
      </trkpt>
      <trkpt lat="59.9909244541" lon="23.4098733021">
        <ele>22.2</ele>
        <time>2012-02-20T19:31:52Z</time>
      </trkpt>
      <trkpt lat="59.990807778" lon="23.4099756451">
        <ele>22.2</ele>
        <time>2012-02-20T19:31:57Z</time>
      </trkpt>
      <trkpt lat="59.9906594184" lon="23.4100883816">
        <ele>22.2</ele>
        <time>2012-02-20T19:32:03Z</time>
      </trkpt>
      <trkpt lat="59.9905009167" lon="23.4101307941">
        <ele>22.2</ele>
        <time>2012-02-20T19:32:09Z</time>
      </trkpt>
      <trkpt lat="59.9903450133" lon="23.4100374197">
        <ele>22.2</ele>
        <time>2012-02-20T19:32:15Z</time>
      </trkpt>
      <trkpt lat="59.9902707497" lon="23.4099155469">
        <ele>22.2</ele>
        <time>2012-02-20T19:32:19Z</time>
      </trkpt>
      <trkpt lat="59.9901957317" lon="23.4097132916">
        <ele>22.2</ele>
        <time>2012-02-20T19:32:24Z</time>
      </trkpt>
      <trkpt lat="59.9901150978" lon="23.4094564702">
        <ele>22.2</ele>
        <time>2012-02-20T19:32:30Z</time>
      </trkpt>
      <trkpt lat="59.990054329" lon="23.4092372835">
        <ele>22.2</ele>
        <time>2012-02-20T19:32:35Z</time>
      </trkpt>
      <trkpt lat="59.989973779" lon="23.4089626087">
        <ele>22.2</ele>
        <time>2012-02-20T19:32:41Z</time>
      </trkpt>
      <trkpt lat="59.9898942348" lon="23.4087649635">
        <ele>22.2</ele>
        <time>2012-02-20T19:32:46Z</time>
      </trkpt>
      <trkpt lat="59.9897962503" lon="23.4085373949">
        <ele>22.2</ele>
        <time>2012-02-20T19:32:52Z</time>
      </trkpt>
      <trkpt lat="59.9897220705" lon="23.4084003508">
        <ele>22.2</ele>
        <time>2012-02-20T19:32:56Z</time>
      </trkpt>
      <trkpt lat="59.9896016226" lon="23.4082230736">
        <ele>22.2</ele>
        <time>2012-02-20T19:33:02Z</time>
      </trkpt>
      <trkpt lat="59.9895204858" lon="23.4081210659">
        <ele>22.2</ele>
        <time>2012-02-20T19:33:07Z</time>
      </trkpt>
      <trkpt lat="59.9894379241" lon="23.4080411864">
        <ele>22.2</ele>
        <time>2012-02-20T19:33:11Z</time>
      </trkpt>
      <trkpt lat="59.989319907" lon="23.4079351553">
        <ele>22.2</ele>
        <time>2012-02-20T19:33:17Z</time>
      </trkpt>
      <trkpt lat="59.9892339087" lon="23.4078659209">
        <ele>22.2</ele>
        <time>2012-02-20T19:33:21Z</time>
      </trkpt>
      <trkpt lat="59.989123519" lon="23.4077405276">
        <ele>22.2</ele>
        <time>2012-02-20T19:33:26Z</time>
      </trkpt>
      <trkpt lat="59.989047579" lon="23.4076302218">
        <ele>22.2</ele>
        <time>2012-02-20T19:33:30Z</time>
      </trkpt>
      <trkpt lat="59.9889686215" lon="23.4074737318">
        <ele>22.2</ele>
        <time>2012-02-20T19:33:34Z</time>
      </trkpt>
      <trkpt lat="59.9888782647" lon="23.4072786849">
        <ele>22.2</ele>
        <time>2012-02-20T19:33:39Z</time>
      </trkpt>
      <trkpt lat="59.9887672045" lon="23.4070299102">
        <ele>22.2</ele>
        <time>2012-02-20T19:33:45Z</time>
      </trkpt>
      <trkpt lat="59.9886522048" lon="23.4068556504">
        <ele>22.2</ele>
        <time>2012-02-20T19:33:50Z</time>
      </trkpt>
      <trkpt lat="59.9885640272" lon="23.4067314307">
        <ele>22.2</ele>
        <time>2012-02-20T19:33:54Z</time>
      </trkpt>
      <trkpt lat="59.9884414" lon="23.4065929617">
        <ele>22.2</ele>
        <time>2012-02-20T19:33:59Z</time>
      </trkpt>
      <trkpt lat="59.9883424098" lon="23.4064706698">
        <ele>22.2</ele>
        <time>2012-02-20T19:34:03Z</time>
      </trkpt>
      <trkpt lat="59.9881912003" lon="23.4063350506">
        <ele>22.2</ele>
        <time>2012-02-20T19:34:09Z</time>
      </trkpt>
      <trkpt lat="59.9880489595" lon="23.4063068036">
        <ele>23.2</ele>
        <time>2012-02-20T19:34:15Z</time>
      </trkpt>
      <trkpt lat="59.9879283439" lon="23.406377044">
        <ele>23.6</ele>
        <time>2012-02-20T19:34:21Z</time>
      </trkpt>
      <trkpt lat="59.9878498893" lon="23.4064570911">
        <ele>23.8</ele>
        <time>2012-02-20T19:34:25Z</time>
      </trkpt>
      <trkpt lat="59.9877192993" lon="23.4066168501">
        <ele>24.6</ele>
        <time>2012-02-20T19:34:32Z</time>
      </trkpt>
      <trkpt lat="59.9875959178" lon="23.406822961">
        <ele>25.4</ele>
        <time>2012-02-20T19:34:38Z</time>
      </trkpt>
      <trkpt lat="59.9874667527" lon="23.4069901799">
        <ele>25.8</ele>
        <time>2012-02-20T19:34:44Z</time>
      </trkpt>
      <trkpt lat="59.9873079995" lon="23.4071690497">
        <ele>26</ele>
        <time>2012-02-20T19:34:51Z</time>
      </trkpt>
      <trkpt lat="59.9871677703" lon="23.4072727338">
        <ele>26.6</ele>
        <time>2012-02-20T19:34:57Z</time>
      </trkpt>
      <trkpt lat="59.9870455622" lon="23.4073321615">
        <ele>27.4</ele>
        <time>2012-02-20T19:35:02Z</time>
      </trkpt>
      <trkpt lat="59.9869214263" lon="23.4073666111">
        <ele>27.8</ele>
        <time>2012-02-20T19:35:07Z</time>
      </trkpt>
      <trkpt lat="59.9867705521" lon="23.4073827881">
        <ele>28</ele>
        <time>2012-02-20T19:35:13Z</time>
      </trkpt>
      <trkpt lat="59.9866148164" lon="23.4074002225">
        <ele>28.2</ele>
        <time>2012-02-20T19:35:19Z</time>
      </trkpt>
      <trkpt lat="59.9864607571" lon="23.4074064251">
        <ele>28.2</ele>
        <time>2012-02-20T19:35:25Z</time>
      </trkpt>
      <trkpt lat="59.9863347771" lon="23.4073956963">
        <ele>28.2</ele>
        <time>2012-02-20T19:35:30Z</time>
      </trkpt>
      <trkpt lat="59.9861810531" lon="23.4074076824">
        <ele>28.4</ele>
        <time>2012-02-20T19:35:36Z</time>
      </trkpt>
      <trkpt lat="59.9858877704" lon="23.4073188342">
        <ele>28.4</ele>
        <time>2012-02-20T19:35:47Z</time>
      </trkpt>
      <trkpt lat="59.9857381535" lon="23.4072104563">
        <ele>28.6</ele>
        <time>2012-02-20T19:35:53Z</time>
      </trkpt>
      <trkpt lat="59.9856122573" lon="23.4071179201">
        <ele>29.2</ele>
        <time>2012-02-20T19:35:58Z</time>
      </trkpt>
      <trkpt lat="59.9854617184" lon="23.4070383759">
        <ele>29.8</ele>
        <time>2012-02-20T19:36:04Z</time>
      </trkpt>
      <trkpt lat="59.9852885483" lon="23.4069782776">
        <ele>30</ele>
        <time>2012-02-20T19:36:11Z</time>
      </trkpt>
      <trkpt lat="59.9851301304" lon="23.4069353623">
        <ele>30.6</ele>
        <time>2012-02-20T19:36:17Z</time>
      </trkpt>
      <trkpt lat="59.9850266978" lon="23.4067821412">
        <ele>31.4</ele>
        <time>2012-02-20T19:36:22Z</time>
      </trkpt>
      <trkpt lat="59.9849945113" lon="23.4065274991">
        <ele>31.8</ele>
        <time>2012-02-20T19:36:27Z</time>
      </trkpt>
      <trkpt lat="59.9850406117" lon="23.4061166183">
        <ele>32.2</ele>
        <time>2012-02-20T19:36:35Z</time>
      </trkpt>
      <trkpt lat="59.9850762348" lon="23.4057482338">
        <ele>33.2</ele>
        <time>2012-02-20T19:36:43Z</time>
      </trkpt>
      <trkpt lat="59.9850815154" lon="23.4055163066">
        <ele>33.8</ele>
        <time>2012-02-20T19:36:48Z</time>
      </trkpt>
      <trkpt lat="59.9850795038" lon="23.4052209285">
        <ele>35</ele>
        <time>2012-02-20T19:36:54Z</time>
      </trkpt>
      <trkpt lat="59.9850769054" lon="23.4048543042">
        <ele>35.8</ele>
        <time>2012-02-20T19:37:01Z</time>
      </trkpt>
      <trkpt lat="59.9850544419" lon="23.404492709">
        <ele>37.2</ele>
        <time>2012-02-20T19:37:08Z</time>
      </trkpt>
      <trkpt lat="59.9850263625" lon="23.404176879">
        <ele>37.8</ele>
        <time>2012-02-20T19:37:14Z</time>
      </trkpt>
      <trkpt lat="59.9849953495" lon="23.4039680859">
        <ele>38.4</ele>
        <time>2012-02-20T19:37:18Z</time>
      </trkpt>
      <trkpt lat="59.9849577147" lon="23.4036733783">
        <ele>39.4</ele>
        <time>2012-02-20T19:37:24Z</time>
      </trkpt>
      <trkpt lat="59.9848717165" lon="23.4031572209">
        <ele>40.4</ele>
        <time>2012-02-20T19:37:34Z</time>
      </trkpt>
      <trkpt lat="59.9848082655" lon="23.4028335957">
        <ele>41.6</ele>
        <time>2012-02-20T19:37:40Z</time>
      </trkpt>
      <trkpt lat="59.984750598" lon="23.4024934582">
        <ele>42.2</ele>
        <time>2012-02-20T19:37:47Z</time>
      </trkpt>
      <trkpt lat="59.9846939364" lon="23.4021747784">
        <ele>43</ele>
        <time>2012-02-20T19:37:53Z</time>
      </trkpt>
      <trkpt lat="59.9846476683" lon="23.401817458">
        <ele>44</ele>
        <time>2012-02-20T19:38:00Z</time>
      </trkpt>
      <trkpt lat="59.9846127157" lon="23.4014964312">
        <ele>44.4</ele>
        <time>2012-02-20T19:38:06Z</time>
      </trkpt>
      <trkpt lat="59.9845604127" lon="23.4012071719">
        <ele>44.6</ele>
        <time>2012-02-20T19:38:11Z</time>
      </trkpt>
      <trkpt lat="59.9845120491" lon="23.4008720635">
        <ele>44.8</ele>
        <time>2012-02-20T19:38:17Z</time>
      </trkpt>
      <trkpt lat="59.9844760908" lon="23.4005917728">
        <ele>44.8</ele>
        <time>2012-02-20T19:38:22Z</time>
      </trkpt>
      <trkpt lat="59.9844256317" lon="23.4002424152">
        <ele>44.8</ele>
        <time>2012-02-20T19:38:28Z</time>
      </trkpt>
      <trkpt lat="59.9843556429" lon="23.3998731087">
        <ele>44.4</ele>
        <time>2012-02-20T19:38:35Z</time>
      </trkpt>
      <trkpt lat="59.9842806249" lon="23.3995433647">
        <ele>43.6</ele>
        <time>2012-02-20T19:38:41Z</time>
      </trkpt>
      <trkpt lat="59.984211558" lon="23.3992847831">
        <ele>43.4</ele>
        <time>2012-02-20T19:38:46Z</time>
      </trkpt>
      <trkpt lat="59.9841588359" lon="23.3990355892">
        <ele>43.2</ele>
        <time>2012-02-20T19:38:51Z</time>
      </trkpt>
      <trkpt lat="59.9841067004" lon="23.3988052546">
        <ele>43</ele>
        <time>2012-02-20T19:38:56Z</time>
      </trkpt>
      <trkpt lat="59.9840495359" lon="23.3985710643">
        <ele>43</ele>
        <time>2012-02-20T19:39:01Z</time>
      </trkpt>
      <trkpt lat="59.9840003341" lon="23.3983394724">
        <ele>42</ele>
        <time>2012-02-20T19:39:06Z</time>
      </trkpt>
      <trkpt lat="59.9839536469" lon="23.3981534781">
        <ele>41.6</ele>
        <time>2012-02-20T19:39:10Z</time>
      </trkpt>
      <trkpt lat="59.9839088038" lon="23.3979698306">
        <ele>41.4</ele>
        <time>2012-02-20T19:39:14Z</time>
      </trkpt>
      <trkpt lat="59.9838528965" lon="23.397724241">
        <ele>41.2</ele>
        <time>2012-02-20T19:39:19Z</time>
      </trkpt>
      <trkpt lat="59.9837860089" lon="23.3974987678">
        <ele>41</ele>
        <time>2012-02-20T19:39:24Z</time>
      </trkpt>
      <trkpt lat="59.9837170259" lon="23.3973237538">
        <ele>41</ele>
        <time>2012-02-20T19:39:28Z</time>
      </trkpt>
      <trkpt lat="59.9836285969" lon="23.3971179781">
        <ele>40.8</ele>
        <time>2012-02-20T19:39:33Z</time>
      </trkpt>
      <trkpt lat="59.9835412575" lon="23.3969345822">
        <ele>40.8</ele>
        <time>2012-02-20T19:39:38Z</time>
      </trkpt>
      <trkpt lat="59.9833893774" lon="23.3966682892">
        <ele>40.8</ele>
        <time>2012-02-20T19:39:45Z</time>
      </trkpt>
      <trkpt lat="59.9832686781" lon="23.3965110447">
        <ele>40.8</ele>
        <time>2012-02-20T19:39:50Z</time>
      </trkpt>
      <trkpt lat="59.9831515829" lon="23.3963398863">
        <ele>40.8</ele>
        <time>2012-02-20T19:39:56Z</time>
      </trkpt>
      <trkpt lat="59.9830328114" lon="23.3962320113">
        <ele>39.8</ele>
        <time>2012-02-20T19:40:01Z</time>
      </trkpt>
      <trkpt lat="59.9828824401" lon="23.3960869206">
        <ele>39.2</ele>
        <time>2012-02-20T19:40:07Z</time>
      </trkpt>
      <trkpt lat="59.9827297219" lon="23.3959341186">
        <ele>39</ele>
        <time>2012-02-20T19:40:13Z</time>
      </trkpt>
      <trkpt lat="59.9826098607" lon="23.3958206276">
        <ele>38</ele>
        <time>2012-02-20T19:40:18Z</time>
      </trkpt>
      <trkpt lat="59.9824402111" lon="23.395666736">
        <ele>37.2</ele>
        <time>2012-02-20T19:40:25Z</time>
      </trkpt>
      <trkpt lat="59.9823128062" lon="23.3955679134">
        <ele>36.8</ele>
        <time>2012-02-20T19:40:30Z</time>
      </trkpt>
      <trkpt lat="59.9821876644" lon="23.3954742037">
        <ele>36.6</ele>
        <time>2012-02-20T19:40:35Z</time>
      </trkpt>
      <trkpt lat="59.9820349462" lon="23.3953647361">
        <ele>35.6</ele>
        <time>2012-02-20T19:40:41Z</time>
      </trkpt>
      <trkpt lat="59.9819056135" lon="23.3952728705">
        <ele>35.2</ele>
        <time>2012-02-20T19:40:46Z</time>
      </trkpt>
      <trkpt lat="59.9817731795" lon="23.3952034683">
        <ele>34.8</ele>
        <time>2012-02-20T19:40:51Z</time>
      </trkpt>
      <trkpt lat="59.9816175276" lon="23.3951221639">
        <ele>34.6</ele>
        <time>2012-02-20T19:40:57Z</time>
      </trkpt>
      <trkpt lat="59.9814879434" lon="23.3950648317">
        <ele>34.6</ele>
        <time>2012-02-20T19:41:02Z</time>
      </trkpt>
      <trkpt lat="59.981376548" lon="23.3950276161">
        <ele>34.6</ele>
        <time>2012-02-20T19:41:06Z</time>
      </trkpt>
      <trkpt lat="59.9812473829" lon="23.3949869639">
        <ele>34.6</ele>
        <time>2012-02-20T19:41:11Z</time>
      </trkpt>
      <trkpt lat="59.9811236661" lon="23.3949596389">
        <ele>34.6</ele>
        <time>2012-02-20T19:41:16Z</time>
      </trkpt>
      <trkpt lat="59.9809962612" lon="23.3949210821">
        <ele>34.4</ele>
        <time>2012-02-20T19:41:21Z</time>
      </trkpt>
      <trkpt lat="59.9808643301" lon="23.3948634985">
        <ele>34.4</ele>
        <time>2012-02-20T19:41:26Z</time>
      </trkpt>
      <trkpt lat="59.9807066665" lon="23.3948062501">
        <ele>34.2</ele>
        <time>2012-02-20T19:41:32Z</time>
      </trkpt>
      <trkpt lat="59.9805122064" lon="23.394728969">
        <ele>33.4</ele>
        <time>2012-02-20T19:41:39Z</time>
      </trkpt>
      <trkpt lat="59.9803416348" lon="23.3946838744">
        <ele>33</ele>
        <time>2012-02-20T19:41:45Z</time>
      </trkpt>
      <trkpt lat="59.9801844742" lon="23.3946337506">
        <ele>32.8</ele>
        <time>2012-02-20T19:41:51Z</time>
      </trkpt>
      <trkpt lat="59.9800191831" lon="23.3945560504">
        <ele>32.6</ele>
        <time>2012-02-20T19:41:57Z</time>
      </trkpt>
      <trkpt lat="59.9798749306" lon="23.3944788531">
        <ele>32.4</ele>
        <time>2012-02-20T19:42:03Z</time>
      </trkpt>
      <trkpt lat="59.9797197816" lon="23.3943840538">
        <ele>31.4</ele>
        <time>2012-02-20T19:42:09Z</time>
      </trkpt>
      <trkpt lat="59.9795298478" lon="23.3942548049">
        <ele>30.4</ele>
        <time>2012-02-20T19:42:16Z</time>
      </trkpt>
      <trkpt lat="59.9793643052" lon="23.3941662082">
        <ele>29.4</ele>
        <time>2012-02-20T19:42:22Z</time>
      </trkpt>
      <trkpt lat="59.9791985951" lon="23.3940754322">
        <ele>28.8</ele>
        <time>2012-02-20T19:42:28Z</time>
      </trkpt>
      <trkpt lat="59.9788842738" lon="23.3939811359">
        <ele>28.4</ele>
        <time>2012-02-20T19:42:40Z</time>
      </trkpt>
      <trkpt lat="59.9787287058" lon="23.3939398969">
        <ele>28.2</ele>
        <time>2012-02-20T19:42:46Z</time>
      </trkpt>
      <trkpt lat="59.9785704555" lon="23.3939090515">
        <ele>28.2</ele>
        <time>2012-02-20T19:42:52Z</time>
      </trkpt>
      <trkpt lat="59.9783700443" lon="23.3938616938">
        <ele>28.2</ele>
        <time>2012-02-20T19:42:59Z</time>
      </trkpt>
      <trkpt lat="59.9782130513" lon="23.3938325248">
        <ele>28.2</ele>
        <time>2012-02-20T19:43:05Z</time>
      </trkpt>
      <trkpt lat="59.9780711457" lon="23.3938195328">
        <ele>28.2</ele>
        <time>2012-02-20T19:43:10Z</time>
      </trkpt>
      <trkpt lat="59.9779491891" lon="23.3938107318">
        <ele>28.2</ele>
        <time>2012-02-20T19:43:15Z</time>
      </trkpt>
      <trkpt lat="59.9778211975" lon="23.3938535633">
        <ele>27.4</ele>
        <time>2012-02-20T19:43:20Z</time>
      </trkpt>
      <trkpt lat="59.9777472691" lon="23.393988931">
        <ele>27</ele>
        <time>2012-02-20T19:43:24Z</time>
      </trkpt>
      <trkpt lat="59.9777369594" lon="23.3940386357">
        <ele>27</ele>
        <time>2012-02-20T19:43:25Z</time>
      </trkpt>
      <trkpt lat="59.9778271486" lon="23.3943945312">
        <ele>26.6</ele>
        <time>2012-02-20T19:43:32Z</time>
      </trkpt>
      <trkpt lat="59.9779138174" lon="23.3947122052">
        <ele>26.4</ele>
        <time>2012-02-20T19:43:39Z</time>
      </trkpt>
      <trkpt lat="59.977977017" lon="23.3950126125">
        <ele>26.2</ele>
        <time>2012-02-20T19:43:45Z</time>
      </trkpt>
      <trkpt lat="59.9780360255" lon="23.3953732018">
        <ele>25.6</ele>
        <time>2012-02-20T19:43:52Z</time>
      </trkpt>
      <trkpt lat="59.9780693017" lon="23.395603285">
        <ele>25.2</ele>
        <time>2012-02-20T19:43:56Z</time>
      </trkpt>
      <trkpt lat="59.9780911784" lon="23.3958809773">
        <ele>24.6</ele>
        <time>2012-02-20T19:44:01Z</time>
      </trkpt>
      <trkpt lat="59.9781002309" lon="23.3961589211">
        <ele>24.4</ele>
        <time>2012-02-20T19:44:06Z</time>
      </trkpt>
      <trkpt lat="59.9781127199" lon="23.3964340151">
        <ele>24.4</ele>
        <time>2012-02-20T19:44:11Z</time>
      </trkpt>
      <trkpt lat="59.9781092834" lon="23.3967092767">
        <ele>24.2</ele>
        <time>2012-02-20T19:44:16Z</time>
      </trkpt>
      <trkpt lat="59.9780987222" lon="23.3969956862">
        <ele>24.2</ele>
        <time>2012-02-20T19:44:21Z</time>
      </trkpt>
      <trkpt lat="59.9780819584" lon="23.3972670083">
        <ele>24.2</ele>
        <time>2012-02-20T19:44:26Z</time>
      </trkpt>
      <trkpt lat="59.9780164957" lon="23.3978183697">
        <ele>23.8</ele>
        <time>2012-02-20T19:44:36Z</time>
      </trkpt>
      <trkpt lat="59.9779820461" lon="23.3981501253">
        <ele>23</ele>
        <time>2012-02-20T19:44:42Z</time>
      </trkpt>
      <trkpt lat="59.9779678807" lon="23.3984121435">
        <ele>22.6</ele>
        <time>2012-02-20T19:44:47Z</time>
      </trkpt>
      <trkpt lat="59.977975173" lon="23.3984769356">
        <ele>22.4</ele>
        <time>2012-02-20T19:44:49Z</time>
      </trkpt>
      <trkpt lat="59.977959415" lon="23.3985204376">
        <ele>22.2</ele>
        <time>2012-02-20T19:44:57Z</time>
      </trkpt>
      <trkpt lat="59.9779461716" lon="23.3985490199">
        <ele>20.2</ele>
        <time>2012-02-20T19:45:32Z</time>
      </trkpt>
      <trkpt lat="59.9779413939" lon="23.3985352736">
        <ele>19.4</ele>
        <time>2012-02-20T19:45:48Z</time>
      </trkpt>
      <trkpt lat="59.9779602532" lon="23.3985510316">
        <ele>18.8</ele>
        <time>2012-02-20T19:45:54Z</time>
      </trkpt>
      <trkpt lat="59.9779794477" lon="23.3986695516">
        <ele>18</ele>
        <time>2012-02-20T19:46:23Z</time>
      </trkpt>
      <trkpt lat="59.9780123886" lon="23.3989658518">
        <ele>18</ele>
        <time>2012-02-20T19:46:27Z</time>
      </trkpt>
      <trkpt lat="59.9780288171" lon="23.3990324041">
        <ele>18</ele>
        <time>2012-02-20T19:46:28Z</time>
      </trkpt>
      <trkpt lat="59.9782096985" lon="23.3992543568">
        <ele>18</ele>
        <time>2012-02-20T19:46:34Z</time>
      </trkpt>
      <trkpt lat="59.9783759954" lon="23.3993899759">
        <ele>18</ele>
        <time>2012-02-20T19:46:39Z</time>
      </trkpt>
      <trkpt lat="59.9785634985" lon="23.3995519142">
        <ele>17.4</ele>
        <time>2012-02-20T19:46:45Z</time>
      </trkpt>
      <trkpt lat="59.9787434579" lon="23.3996980946">
        <ele>16.6</ele>
        <time>2012-02-20T19:46:51Z</time>
      </trkpt>
      <trkpt lat="59.9789307934" lon="23.3998481306">
        <ele>16.4</ele>
        <time>2012-02-20T19:46:57Z</time>
      </trkpt>
      <trkpt lat="59.9791188832" lon="23.3999975799">
        <ele>16.2</ele>
        <time>2012-02-20T19:47:03Z</time>
      </trkpt>
      <trkpt lat="59.9793028659" lon="23.400154992">
        <ele>16</ele>
        <time>2012-02-20T19:47:09Z</time>
      </trkpt>
      <trkpt lat="59.9794925483" lon="23.4003099733">
        <ele>16</ele>
        <time>2012-02-20T19:47:15Z</time>
      </trkpt>
      <trkpt lat="59.9796782912" lon="23.4004714087">
        <ele>16</ele>
        <time>2012-02-20T19:47:21Z</time>
      </trkpt>
      <trkpt lat="59.9797967275" lon="23.4005734164">
        <ele>15.8</ele>
        <time>2012-02-20T19:47:25Z</time>
      </trkpt>
      <trkpt lat="59.9800162494" lon="23.4007817904">
        <ele>15.8</ele>
        <time>2012-02-20T19:47:32Z</time>
      </trkpt>
      <trkpt lat="59.9801993939" lon="23.4009728978">
        <ele>15.8</ele>
        <time>2012-02-20T19:47:38Z</time>
      </trkpt>
      <trkpt lat="59.9803888249" lon="23.4011609038">
        <ele>15.8</ele>
        <time>2012-02-20T19:47:44Z</time>
      </trkpt>
      <trkpt lat="59.9805334127" lon="23.4013090958">
        <ele>15.8</ele>
        <time>2012-02-20T19:47:49Z</time>
      </trkpt>
      <trkpt lat="59.9807163057" lon="23.401508585">
        <ele>15.8</ele>
        <time>2012-02-20T19:47:55Z</time>
      </trkpt>
      <trkpt lat="59.9808837761" lon="23.4016875385">
        <ele>15.8</ele>
        <time>2012-02-20T19:48:00Z</time>
      </trkpt>
      <trkpt lat="59.9809758932" lon="23.401806813">
        <ele>15.8</ele>
        <time>2012-02-20T19:48:03Z</time>
      </trkpt>
      <trkpt lat="59.981057449" lon="23.4019172026">
        <ele>15.8</ele>
        <time>2012-02-20T19:48:06Z</time>
      </trkpt>
      <trkpt lat="59.9812123466" lon="23.4021445197">
        <ele>15.8</ele>
        <time>2012-02-20T19:48:12Z</time>
      </trkpt>
      <trkpt lat="59.9813872768" lon="23.4023672268">
        <ele>15.8</ele>
        <time>2012-02-20T19:48:18Z</time>
      </trkpt>
      <trkpt lat="59.9815483769" lon="23.4025883413">
        <ele>15.8</ele>
        <time>2012-02-20T19:48:24Z</time>
      </trkpt>
      <trkpt lat="59.981712746" lon="23.4028193465">
        <ele>15.8</ele>
        <time>2012-02-20T19:48:30Z</time>
      </trkpt>
      <trkpt lat="59.9818454315" lon="23.4030159859">
        <ele>15.8</ele>
        <time>2012-02-20T19:48:35Z</time>
      </trkpt>
      <trkpt lat="59.9820054419" lon="23.4032699574">
        <ele>15.8</ele>
        <time>2012-02-20T19:48:41Z</time>
      </trkpt>
      <trkpt lat="59.9821232914" lon="23.4034689438">
        <ele>15.8</ele>
        <time>2012-02-20T19:48:46Z</time>
      </trkpt>
      <trkpt lat="59.9822737465" lon="23.4037318001">
        <ele>15.8</ele>
        <time>2012-02-20T19:48:52Z</time>
      </trkpt>
      <trkpt lat="59.9824099524" lon="23.4039533338">
        <ele>15.8</ele>
        <time>2012-02-20T19:48:57Z</time>
      </trkpt>
      <trkpt lat="59.9825460745" lon="23.4041839198">
        <ele>15.8</ele>
        <time>2012-02-20T19:49:02Z</time>
      </trkpt>
      <trkpt lat="59.9826889859" lon="23.4044575889">
        <ele>16.8</ele>
        <time>2012-02-20T19:49:08Z</time>
      </trkpt>
      <trkpt lat="59.9827804324" lon="23.4046505402">
        <ele>17.2</ele>
        <time>2012-02-20T19:49:12Z</time>
      </trkpt>
      <trkpt lat="59.9829192367" lon="23.4049556414">
        <ele>17.6</ele>
        <time>2012-02-20T19:49:18Z</time>
      </trkpt>
      <trkpt lat="59.9830328952" lon="23.4052039132">
        <ele>17.6</ele>
        <time>2012-02-20T19:49:23Z</time>
      </trkpt>
      <trkpt lat="59.9831305444" lon="23.4054113653">
        <ele>17.8</ele>
        <time>2012-02-20T19:49:27Z</time>
      </trkpt>
      <trkpt lat="59.9832593742" lon="23.4057153768">
        <ele>17.8</ele>
        <time>2012-02-20T19:49:33Z</time>
      </trkpt>
      <trkpt lat="59.9834610427" lon="23.4062030357">
        <ele>17.8</ele>
        <time>2012-02-20T19:49:42Z</time>
      </trkpt>
      <trkpt lat="59.9835034551" lon="23.406317281">
        <ele>17.8</ele>
        <time>2012-02-20T19:49:44Z</time>
      </trkpt>
      <trkpt lat="59.9836286807" lon="23.4066602684">
        <ele>18.4</ele>
        <time>2012-02-20T19:49:50Z</time>
      </trkpt>
      <trkpt lat="59.9837440156" lon="23.4069809599">
        <ele>19.2</ele>
        <time>2012-02-20T19:49:56Z</time>
      </trkpt>
      <trkpt lat="59.9838563331" lon="23.4073253721">
        <ele>19.6</ele>
        <time>2012-02-20T19:50:02Z</time>
      </trkpt>
      <trkpt lat="59.9839520544" lon="23.4076550323">
        <ele>19.6</ele>
        <time>2012-02-20T19:50:07Z</time>
      </trkpt>
      <trkpt lat="59.9840182714" lon="23.4078993646">
        <ele>19.8</ele>
        <time>2012-02-20T19:50:11Z</time>
      </trkpt>
      <trkpt lat="59.9840844046" lon="23.4081537553">
        <ele>19.8</ele>
        <time>2012-02-20T19:50:15Z</time>
      </trkpt>
      <trkpt lat="59.9841491967" lon="23.4084106605">
        <ele>20.2</ele>
        <time>2012-02-20T19:50:19Z</time>
      </trkpt>
      <trkpt lat="59.984224047" lon="23.4087412427">
        <ele>21</ele>
        <time>2012-02-20T19:50:24Z</time>
      </trkpt>
      <trkpt lat="59.9842885877" lon="23.409049529">
        <ele>21.4</ele>
        <time>2012-02-20T19:50:29Z</time>
      </trkpt>
      <trkpt lat="59.9843607558" lon="23.4094062626">
        <ele>21.6</ele>
        <time>2012-02-20T19:50:34Z</time>
      </trkpt>
      <trkpt lat="59.9844717322" lon="23.4099975218">
        <ele>21.8</ele>
        <time>2012-02-20T19:50:43Z</time>
      </trkpt>
      <trkpt lat="59.9844823772" lon="23.4100623978">
        <ele>21.8</ele>
        <time>2012-02-20T19:50:44Z</time>
      </trkpt>
      <trkpt lat="59.9844966264" lon="23.4103144415">
        <ele>22</ele>
        <time>2012-02-20T19:50:48Z</time>
      </trkpt>
      <trkpt lat="59.9845433136" lon="23.4106810658">
        <ele>22</ele>
        <time>2012-02-20T19:50:53Z</time>
      </trkpt>
      <trkpt lat="59.9845733208" lon="23.4110361231">
        <ele>22</ele>
        <time>2012-02-20T19:50:58Z</time>
      </trkpt>
      <trkpt lat="59.9846000591" lon="23.4114166613">
        <ele>22</ele>
        <time>2012-02-20T19:51:03Z</time>
      </trkpt>
      <trkpt lat="59.9846226064" lon="23.4117832018">
        <ele>22</ele>
        <time>2012-02-20T19:51:08Z</time>
      </trkpt>
      <trkpt lat="59.9846412142" lon="23.4122118522">
        <ele>22</ele>
        <time>2012-02-20T19:51:14Z</time>
      </trkpt>
      <trkpt lat="59.9846623366" lon="23.4125847629">
        <ele>21.6</ele>
        <time>2012-02-20T19:51:19Z</time>
      </trkpt>
      <trkpt lat="59.9846764182" lon="23.4129414128">
        <ele>21</ele>
        <time>2012-02-20T19:51:24Z</time>
      </trkpt>
      <trkpt lat="59.984695026" lon="23.4135763417">
        <ele>20.4</ele>
        <time>2012-02-20T19:51:33Z</time>
      </trkpt>
      <trkpt lat="59.9847124604" lon="23.4139418763">
        <ele>20.2</ele>
        <time>2012-02-20T19:51:38Z</time>
      </trkpt>
      <trkpt lat="59.9847229377" lon="23.4143102609">
        <ele>20</ele>
        <time>2012-02-20T19:51:43Z</time>
      </trkpt>
      <trkpt lat="59.9847345048" lon="23.4146723589">
        <ele>19.6</ele>
        <time>2012-02-20T19:51:48Z</time>
      </trkpt>
      <trkpt lat="59.9847619136" lon="23.4150234767">
        <ele>19</ele>
        <time>2012-02-20T19:51:53Z</time>
      </trkpt>
      <trkpt lat="59.984819581" lon="23.4153485268">
        <ele>18.4</ele>
        <time>2012-02-20T19:51:58Z</time>
      </trkpt>
      <trkpt lat="59.9848639213" lon="23.4157692982">
        <ele>18.2</ele>
        <time>2012-02-20T19:52:04Z</time>
      </trkpt>
      <trkpt lat="59.9848680284" lon="23.4161246069">
        <ele>18</ele>
        <time>2012-02-20T19:52:09Z</time>
      </trkpt>
      <trkpt lat="59.9848615744" lon="23.4164768144">
        <ele>18</ele>
        <time>2012-02-20T19:52:14Z</time>
      </trkpt>
      <trkpt lat="59.9848539468" lon="23.4168398345">
        <ele>17.6</ele>
        <time>2012-02-20T19:52:19Z</time>
      </trkpt>
      <trkpt lat="59.9848401167" lon="23.4171964005">
        <ele>16.8</ele>
        <time>2012-02-20T19:52:24Z</time>
      </trkpt>
      <trkpt lat="59.9848303099" lon="23.4175465124">
        <ele>16.4</ele>
        <time>2012-02-20T19:52:29Z</time>
      </trkpt>
      <trkpt lat="59.9848165636" lon="23.4179718939">
        <ele>16.2</ele>
        <time>2012-02-20T19:52:35Z</time>
      </trkpt>
      <trkpt lat="59.9848013085" lon="23.4183944254">
        <ele>16</ele>
        <time>2012-02-20T19:52:41Z</time>
      </trkpt>
      <trkpt lat="59.9847951897" lon="23.4186733751">
        <ele>16</ele>
        <time>2012-02-20T19:52:45Z</time>
      </trkpt>
      <trkpt lat="59.9847932619" lon="23.4190903746">
        <ele>16</ele>
        <time>2012-02-20T19:52:51Z</time>
      </trkpt>
      <trkpt lat="59.9848091875" lon="23.4194451804">
        <ele>15.8</ele>
        <time>2012-02-20T19:52:56Z</time>
      </trkpt>
      <trkpt lat="59.9847920884" lon="23.4197936998">
        <ele>15.8</ele>
        <time>2012-02-20T19:53:01Z</time>
      </trkpt>
      <trkpt lat="59.9847501789" lon="23.4201986294">
        <ele>15.8</ele>
        <time>2012-02-20T19:53:07Z</time>
      </trkpt>
      <trkpt lat="59.9847073474" lon="23.4205344922">
        <ele>15.8</ele>
        <time>2012-02-20T19:53:12Z</time>
      </trkpt>
      <trkpt lat="59.9846493446" lon="23.4208435328">
        <ele>15.8</ele>
        <time>2012-02-20T19:53:17Z</time>
      </trkpt>
      <trkpt lat="59.9845800263" lon="23.4211531602">
        <ele>15.8</ele>
        <time>2012-02-20T19:53:22Z</time>
      </trkpt>
      <trkpt lat="59.9844684632" lon="23.4218287413">
        <ele>15.8</ele>
        <time>2012-02-20T19:53:32Z</time>
      </trkpt>
      <trkpt lat="59.9844086165" lon="23.4222361017">
        <ele>15.8</ele>
        <time>2012-02-20T19:53:38Z</time>
      </trkpt>
      <trkpt lat="59.9843601691" lon="23.4225717968">
        <ele>15.8</ele>
        <time>2012-02-20T19:53:43Z</time>
      </trkpt>
      <trkpt lat="59.9842900126" lon="23.4229687636">
        <ele>15.8</ele>
        <time>2012-02-20T19:53:49Z</time>
      </trkpt>
      <trkpt lat="59.984235195" lon="23.4233179535">
        <ele>15.8</ele>
        <time>2012-02-20T19:53:54Z</time>
      </trkpt>
      <trkpt lat="59.9841729175" lon="23.4236618629">
        <ele>15.8</ele>
        <time>2012-02-20T19:53:59Z</time>
      </trkpt>
      <trkpt lat="59.9841094665" lon="23.424005856">
        <ele>15.8</ele>
        <time>2012-02-20T19:54:04Z</time>
      </trkpt>
      <trkpt lat="59.9840585045" lon="23.4243657748">
        <ele>15.8</ele>
        <time>2012-02-20T19:54:09Z</time>
      </trkpt>
      <trkpt lat="59.9840199478" lon="23.4247499173">
        <ele>15.8</ele>
        <time>2012-02-20T19:54:14Z</time>
      </trkpt>
      <trkpt lat="59.9839945506" lon="23.4250297051">
        <ele>15.8</ele>
        <time>2012-02-20T19:54:18Z</time>
      </trkpt>
      <trkpt lat="59.9839789603" lon="23.4251418549">
        <ele>15.8</ele>
        <time>2012-02-20T19:54:20Z</time>
      </trkpt>
      <trkpt lat="59.9840215403" lon="23.4253972514">
        <ele>15.8</ele>
        <time>2012-02-20T19:54:25Z</time>
      </trkpt>
      <trkpt lat="59.9840890146" lon="23.4254142667">
        <ele>15.8</ele>
        <time>2012-02-20T19:54:27Z</time>
      </trkpt>
      <trkpt lat="59.9842435769" lon="23.4253504804">
        <ele>15.8</ele>
        <time>2012-02-20T19:54:32Z</time>
      </trkpt>
      <trkpt lat="59.9843371189" lon="23.4251213193">
        <ele>15.8</ele>
        <time>2012-02-20T19:54:36Z</time>
      </trkpt>
      <trkpt lat="59.9845182517" lon="23.4250551023">
        <ele>15.8</ele>
        <time>2012-02-20T19:54:41Z</time>
      </trkpt>
      <trkpt lat="59.9847713013" lon="23.4250476424">
        <ele>15.8</ele>
        <time>2012-02-20T19:54:48Z</time>
      </trkpt>
      <trkpt lat="59.9849090159" lon="23.4250442058">
        <ele>15.8</ele>
        <time>2012-02-20T19:54:52Z</time>
      </trkpt>
      <trkpt lat="59.9851068287" lon="23.4250357401">
        <ele>15.8</ele>
        <time>2012-02-20T19:54:58Z</time>
      </trkpt>
      <trkpt lat="59.9852800826" lon="23.4250199821">
        <ele>15.8</ele>
        <time>2012-02-20T19:55:03Z</time>
      </trkpt>
      <trkpt lat="59.9854755485" lon="23.4250175514">
        <ele>15.8</ele>
        <time>2012-02-20T19:55:09Z</time>
      </trkpt>
      <trkpt lat="59.9856446115" lon="23.4250190601">
        <ele>15.8</ele>
        <time>2012-02-20T19:55:14Z</time>
      </trkpt>
      <trkpt lat="59.9858519797" lon="23.4249959261">
        <ele>15.8</ele>
        <time>2012-02-20T19:55:20Z</time>
      </trkpt>
      <trkpt lat="59.9860621977" lon="23.4249840238">
        <ele>15.8</ele>
        <time>2012-02-20T19:55:26Z</time>
      </trkpt>
      <trkpt lat="59.9862713261" lon="23.4249840238">
        <ele>15.8</ele>
        <time>2012-02-20T19:55:32Z</time>
      </trkpt>
      <trkpt lat="59.9866272216" lon="23.4249963452">
        <ele>15.8</ele>
        <time>2012-02-20T19:55:42Z</time>
      </trkpt>
      <trkpt lat="59.9868351765" lon="23.4250790745">
        <ele>15.8</ele>
        <time>2012-02-20T19:55:48Z</time>
      </trkpt>
      <trkpt lat="59.987041958" lon="23.4251767237">
        <ele>15.8</ele>
        <time>2012-02-20T19:55:54Z</time>
      </trkpt>
      <trkpt lat="59.987174392" lon="23.4252485565">
        <ele>15.8</ele>
        <time>2012-02-20T19:55:58Z</time>
      </trkpt>
      <trkpt lat="59.9873563631" lon="23.4253440264">
        <ele>15.8</ele>
        <time>2012-02-20T19:56:03Z</time>
      </trkpt>
      <trkpt lat="59.9875659106" lon="23.4254071421">
        <ele>15.8</ele>
        <time>2012-02-20T19:56:09Z</time>
      </trkpt>
      <trkpt lat="59.9877540842" lon="23.4254577688">
        <ele>15.8</ele>
        <time>2012-02-20T19:56:15Z</time>
      </trkpt>
      <trkpt lat="59.9879609495" lon="23.4255076411">
        <ele>15.8</ele>
        <time>2012-02-20T19:56:21Z</time>
      </trkpt>
      <trkpt lat="59.988331178" lon="23.4255929688">
        <ele>15.8</ele>
        <time>2012-02-20T19:56:32Z</time>
      </trkpt>
      <trkpt lat="59.9884918591" lon="23.4256310226">
        <ele>15.8</ele>
        <time>2012-02-20T19:56:37Z</time>
      </trkpt>
      <trkpt lat="59.988522453" lon="23.4256395722">
        <ele>15.8</ele>
        <time>2012-02-20T19:56:38Z</time>
      </trkpt>
      <trkpt lat="59.9887293183" lon="23.4256718425">
        <ele>16</ele>
        <time>2012-02-20T19:56:44Z</time>
      </trkpt>
      <trkpt lat="59.9889055058" lon="23.4256881034">
        <ele>16.8</ele>
        <time>2012-02-20T19:56:49Z</time>
      </trkpt>
      <trkpt lat="59.9890826992" lon="23.425701682">
        <ele>17.2</ele>
        <time>2012-02-20T19:56:54Z</time>
      </trkpt>
      <trkpt lat="59.9892889778" lon="23.4257177753">
        <ele>17.6</ele>
        <time>2012-02-20T19:57:00Z</time>
      </trkpt>
      <trkpt lat="59.989494921" lon="23.4257278336">
        <ele>17.6</ele>
        <time>2012-02-20T19:57:06Z</time>
      </trkpt>
      <trkpt lat="59.9896996909" lon="23.4257522249">
        <ele>17.8</ele>
        <time>2012-02-20T19:57:12Z</time>
      </trkpt>
      <trkpt lat="59.9898986772" lon="23.4257731797">
        <ele>17.8</ele>
        <time>2012-02-20T19:57:18Z</time>
      </trkpt>
      <trkpt lat="59.9900969091" lon="23.4257788793">
        <ele>17.8</ele>
        <time>2012-02-20T19:57:24Z</time>
      </trkpt>
      <trkpt lat="59.9903020142" lon="23.4257986606">
        <ele>17.8</ele>
        <time>2012-02-20T19:57:30Z</time>
      </trkpt>
      <trkpt lat="59.99050955" lon="23.425829506">
        <ele>17.8</ele>
        <time>2012-02-20T19:57:36Z</time>
      </trkpt>
      <trkpt lat="59.9907185108" lon="23.4258547355">
        <ele>17.8</ele>
        <time>2012-02-20T19:57:42Z</time>
      </trkpt>
      <trkpt lat="59.9909299861" lon="23.4259038535">
        <ele>17.8</ele>
        <time>2012-02-20T19:57:48Z</time>
      </trkpt>
      <trkpt lat="59.9911361809" lon="23.4259602637">
        <ele>17.8</ele>
        <time>2012-02-20T19:57:54Z</time>
      </trkpt>
      <trkpt lat="59.9913150506" lon="23.4260361199">
        <ele>17.8</ele>
        <time>2012-02-20T19:57:59Z</time>
      </trkpt>
      <trkpt lat="59.9914827724" lon="23.4261531312">
        <ele>17.8</ele>
        <time>2012-02-20T19:58:04Z</time>
      </trkpt>
      <trkpt lat="59.9916521706" lon="23.4262824639">
        <ele>17.8</ele>
        <time>2012-02-20T19:58:09Z</time>
      </trkpt>
      <trkpt lat="59.9918151986" lon="23.4264476711">
        <ele>17.8</ele>
        <time>2012-02-20T19:58:14Z</time>
      </trkpt>
      <trkpt lat="59.9919622171" lon="23.4266701268">
        <ele>17.8</ele>
        <time>2012-02-20T19:58:19Z</time>
      </trkpt>
      <trkpt lat="59.9921233172" lon="23.4268949293">
        <ele>18.4</ele>
        <time>2012-02-20T19:58:24Z</time>
      </trkpt>
      <trkpt lat="59.9922877701" lon="23.4270623159">
        <ele>19</ele>
        <time>2012-02-20T19:58:29Z</time>
      </trkpt>
      <trkpt lat="59.9924640415" lon="23.4271357413">
        <ele>19.4</ele>
        <time>2012-02-20T19:58:34Z</time>
      </trkpt>
      <trkpt lat="59.9926449229" lon="23.4271515831">
        <ele>19.6</ele>
        <time>2012-02-20T19:58:39Z</time>
      </trkpt>
      <trkpt lat="59.9928570688" lon="23.4271637369">
        <ele>19.8</ele>
        <time>2012-02-20T19:58:45Z</time>
      </trkpt>
      <trkpt lat="59.9930687117" lon="23.427177567">
        <ele>19.8</ele>
        <time>2012-02-20T19:58:51Z</time>
      </trkpt>
      <trkpt lat="59.9932693744" lon="23.4271644074">
        <ele>19.6</ele>
        <time>2012-02-20T19:58:57Z</time>
      </trkpt>
      <trkpt lat="59.9934619905" lon="23.4270609748">
        <ele>18.8</ele>
        <time>2012-02-20T19:59:03Z</time>
      </trkpt>
      <trkpt lat="59.9935958494" lon="23.4268640839">
        <ele>18.4</ele>
        <time>2012-02-20T19:59:08Z</time>
      </trkpt>
      <trkpt lat="59.9937142019" lon="23.4266206736">
        <ele>18.2</ele>
        <time>2012-02-20T19:59:13Z</time>
      </trkpt>
      <trkpt lat="59.9938053969" lon="23.4264011516">
        <ele>18</ele>
        <time>2012-02-20T19:59:17Z</time>
      </trkpt>
      <trkpt lat="59.9939203966" lon="23.4261244651">
        <ele>18</ele>
        <time>2012-02-20T19:59:22Z</time>
      </trkpt>
      <trkpt lat="59.9940403416" lon="23.4258343675">
        <ele>17.6</ele>
        <time>2012-02-20T19:59:27Z</time>
      </trkpt>
      <trkpt lat="59.99415224" lon="23.4254991753">
        <ele>16.8</ele>
        <time>2012-02-20T19:59:33Z</time>
      </trkpt>
      <trkpt lat="59.9942689998" lon="23.4251623068">
        <ele>16.4</ele>
        <time>2012-02-20T19:59:39Z</time>
      </trkpt>
      <trkpt lat="59.9943885257" lon="23.4248911523">
        <ele>16.2</ele>
        <time>2012-02-20T19:59:44Z</time>
      </trkpt>
      <trkpt lat="59.9945103147" lon="23.4246572973">
        <ele>16</ele>
        <time>2012-02-20T19:59:49Z</time>
      </trkpt>
      <trkpt lat="59.994671331" lon="23.4244402899">
        <ele>16</ele>
        <time>2012-02-20T19:59:55Z</time>
      </trkpt>
      <trkpt lat="59.9948393881" lon="23.4242307424">
        <ele>16</ele>
        <time>2012-02-20T20:00:01Z</time>
      </trkpt>
      <trkpt lat="59.9950332615" lon="23.4240704805">
        <ele>15.8</ele>
        <time>2012-02-20T20:00:07Z</time>
      </trkpt>
      <trkpt lat="59.995176592" lon="23.423875769">
        <ele>15.8</ele>
        <time>2012-02-20T20:00:12Z</time>
      </trkpt>
      <trkpt lat="59.9952296494" lon="23.4235334522">
        <ele>15.8</ele>
        <time>2012-02-20T20:00:17Z</time>
      </trkpt>
      <trkpt lat="59.9952405458" lon="23.4231864415">
        <ele>15.8</ele>
        <time>2012-02-20T20:00:22Z</time>
      </trkpt>
      <trkpt lat="59.9952661106" lon="23.4228372515">
        <ele>15.8</ele>
        <time>2012-02-20T20:00:27Z</time>
      </trkpt>
      <trkpt lat="59.9952876521" lon="23.4224757402">
        <ele>15.8</ele>
        <time>2012-02-20T20:00:32Z</time>
      </trkpt>
      <trkpt lat="59.9953319924" lon="23.4221185874">
        <ele>15.8</ele>
        <time>2012-02-20T20:00:37Z</time>
      </trkpt>
      <trkpt lat="59.9954251153" lon="23.4218017516">
        <ele>15.8</ele>
        <time>2012-02-20T20:00:42Z</time>
      </trkpt>
      <trkpt lat="59.9955109459" lon="23.4214895258">
        <ele>15.8</ele>
        <time>2012-02-20T20:00:47Z</time>
      </trkpt>
      <trkpt lat="59.9955829465" lon="23.4212494682">
        <ele>15.8</ele>
        <time>2012-02-20T20:00:51Z</time>
      </trkpt>
      <trkpt lat="59.995616977" lon="23.4211255837">
        <ele>15.8</ele>
        <time>2012-02-20T20:00:53Z</time>
      </trkpt>
      <trkpt lat="59.9956659273" lon="23.4209288605">
        <ele>15.8</ele>
        <time>2012-02-20T20:00:56Z</time>
      </trkpt>
      <trkpt lat="59.9957570385" lon="23.4206089234">
        <ele>15.8</ele>
        <time>2012-02-20T20:01:01Z</time>
      </trkpt>
      <trkpt lat="59.9958632372" lon="23.4203193288">
        <ele>15.8</ele>
        <time>2012-02-20T20:01:06Z</time>
      </trkpt>
      <trkpt lat="59.9960349823" lon="23.4200789359">
        <ele>15.8</ele>
        <time>2012-02-20T20:01:12Z</time>
      </trkpt>
      <trkpt lat="59.996193987" lon="23.4200509403">
        <ele>15.8</ele>
        <time>2012-02-20T20:01:17Z</time>
      </trkpt>
      <trkpt lat="59.9963839208" lon="23.4201421354">
        <ele>15.8</ele>
        <time>2012-02-20T20:01:23Z</time>
      </trkpt>
      <trkpt lat="59.9965651375" lon="23.4202851306">
        <ele>15.8</ele>
        <time>2012-02-20T20:01:29Z</time>
      </trkpt>
      <trkpt lat="59.9967567477" lon="23.4204401958">
        <ele>15.8</ele>
        <time>2012-02-20T20:01:35Z</time>
      </trkpt>
      <trkpt lat="59.997095628" lon="23.4206219992">
        <ele>15.8</ele>
        <time>2012-02-20T20:01:45Z</time>
      </trkpt>
      <trkpt lat="59.9974061774" lon="23.4205551116">
        <ele>14.8</ele>
        <time>2012-02-20T20:01:54Z</time>
      </trkpt>
      <trkpt lat="59.9976009727" lon="23.4204231805">
        <ele>14.4</ele>
        <time>2012-02-20T20:02:00Z</time>
      </trkpt>
      <trkpt lat="59.9977533557" lon="23.4203645072">
        <ele>14.2</ele>
        <time>2012-02-20T20:02:05Z</time>
      </trkpt>
      <trkpt lat="59.9979590475" lon="23.4203667703">
        <ele>13.2</ele>
        <time>2012-02-20T20:02:11Z</time>
      </trkpt>
      <trkpt lat="59.9981213211" lon="23.4203727215">
        <ele>12.6</ele>
        <time>2012-02-20T20:02:16Z</time>
      </trkpt>
      <trkpt lat="59.9982861092" lon="23.4203226815">
        <ele>12.2</ele>
        <time>2012-02-20T20:02:21Z</time>
      </trkpt>
      <trkpt lat="59.9984493886" lon="23.4201928459">
        <ele>12</ele>
        <time>2012-02-20T20:02:26Z</time>
      </trkpt>
      <trkpt lat="59.9986063816" lon="23.4200136409">
        <ele>12</ele>
        <time>2012-02-20T20:02:31Z</time>
      </trkpt>
      <trkpt lat="59.9987898614" lon="23.4198170015">
        <ele>11.8</ele>
        <time>2012-02-20T20:02:37Z</time>
      </trkpt>
      <trkpt lat="59.9989387239" lon="23.4196620202">
        <ele>11.8</ele>
        <time>2012-02-20T20:02:42Z</time>
      </trkpt>
      <trkpt lat="59.9991068649" lon="23.4194695718">
        <ele>11.8</ele>
        <time>2012-02-20T20:02:48Z</time>
      </trkpt>
      <trkpt lat="59.9992771013" lon="23.4192436796">
        <ele>12.6</ele>
        <time>2012-02-20T20:02:54Z</time>
      </trkpt>
      <trkpt lat="59.9993932744" lon="23.4190250796">
        <ele>13</ele>
        <time>2012-02-20T20:02:59Z</time>
      </trkpt>
      <trkpt lat="59.9995438133" lon="23.4187436992">
        <ele>13.6</ele>
        <time>2012-02-20T20:03:05Z</time>
      </trkpt>
      <trkpt lat="59.9996918377" lon="23.4184717904">
        <ele>14.6</ele>
        <time>2012-02-20T20:03:11Z</time>
      </trkpt>
      <trkpt lat="59.9998155545" lon="23.4182396118">
        <ele>15.2</ele>
        <time>2012-02-20T20:03:16Z</time>
      </trkpt>
      <trkpt lat="59.9999437138" lon="23.418049175">
        <ele>16.4</ele>
        <time>2012-02-20T20:03:21Z</time>
      </trkpt>
      <trkpt lat="60.0000905646" lon="23.4178255459">
        <ele>17.2</ele>
        <time>2012-02-20T20:03:27Z</time>
      </trkpt>
      <trkpt lat="60.000254347" lon="23.4175828061">
        <ele>18.2</ele>
        <time>2012-02-20T20:03:33Z</time>
      </trkpt>
      <trkpt lat="60.0004128487" lon="23.417343419">
        <ele>19</ele>
        <time>2012-02-20T20:03:39Z</time>
      </trkpt>
      <trkpt lat="60.0004383297" lon="23.4173032697">
        <ele>19.2</ele>
        <time>2012-02-20T20:03:40Z</time>
      </trkpt>
      <trkpt lat="60.0005976696" lon="23.417051226">
        <ele>19.6</ele>
        <time>2012-02-20T20:03:46Z</time>
      </trkpt>
      <trkpt lat="60.000749382" lon="23.416777054">
        <ele>20.8</ele>
        <time>2012-02-20T20:03:52Z</time>
      </trkpt>
      <trkpt lat="60.0009051177" lon="23.4165084141">
        <ele>21.4</ele>
        <time>2012-02-20T20:03:58Z</time>
      </trkpt>
      <trkpt lat="60.0010299242" lon="23.4162727989">
        <ele>22.2</ele>
        <time>2012-02-20T20:04:03Z</time>
      </trkpt>
      <trkpt lat="60.0011574967" lon="23.4159557955">
        <ele>23.2</ele>
        <time>2012-02-20T20:04:09Z</time>
      </trkpt>
      <trkpt lat="60.0012499491" lon="23.4155787776">
        <ele>23.6</ele>
        <time>2012-02-20T20:04:15Z</time>
      </trkpt>
      <trkpt lat="60.0012861589" lon="23.4152481955">
        <ele>24.8</ele>
        <time>2012-02-20T20:04:20Z</time>
      </trkpt>
      <trkpt lat="60.0013091253" lon="23.4149073036">
        <ele>25.4</ele>
        <time>2012-02-20T20:04:25Z</time>
      </trkpt>
      <trkpt lat="60.0013395516" lon="23.414491729">
        <ele>25.8</ele>
        <time>2012-02-20T20:04:31Z</time>
      </trkpt>
      <trkpt lat="60.0013667927" lon="23.4140686945">
        <ele>26</ele>
        <time>2012-02-20T20:04:37Z</time>
      </trkpt>
      <trkpt lat="60.0013820478" lon="23.4137085243">
        <ele>26.2</ele>
        <time>2012-02-20T20:04:42Z</time>
      </trkpt>
      <trkpt lat="60.0014113006" lon="23.4132854059">
        <ele>26.2</ele>
        <time>2012-02-20T20:04:48Z</time>
      </trkpt>
      <trkpt lat="60.0014321716" lon="23.412952896">
        <ele>26.2</ele>
        <time>2012-02-20T20:04:53Z</time>
      </trkpt>
      <trkpt lat="60.0014581555" lon="23.4126329588">
        <ele>26.2</ele>
        <time>2012-02-20T20:04:58Z</time>
      </trkpt>
      <trkpt lat="60.0014890008" lon="23.4123196434">
        <ele>26.2</ele>
        <time>2012-02-20T20:05:03Z</time>
      </trkpt>
      <trkpt lat="60.0015075248" lon="23.4120585472">
        <ele>26.2</ele>
        <time>2012-02-20T20:05:07Z</time>
      </trkpt>
      <trkpt lat="60.0015594926" lon="23.4116449843">
        <ele>26.2</ele>
        <time>2012-02-20T20:05:13Z</time>
      </trkpt>
      <trkpt lat="60.0015881587" lon="23.4114314135">
        <ele>26.2</ele>
        <time>2012-02-20T20:05:16Z</time>
      </trkpt>
      <trkpt lat="60.0016091973" lon="23.4112933636">
        <ele>26.2</ele>
        <time>2012-02-20T20:05:18Z</time>
      </trkpt>
      <trkpt lat="60.0016532861" lon="23.410972253">
        <ele>26.2</ele>
        <time>2012-02-20T20:05:23Z</time>
      </trkpt>
      <trkpt lat="60.0017019849" lon="23.4105730231">
        <ele>27.2</ele>
        <time>2012-02-20T20:05:29Z</time>
      </trkpt>
      <trkpt lat="60.0017562158" lon="23.4101834324">
        <ele>27.8</ele>
        <time>2012-02-20T20:05:35Z</time>
      </trkpt>
      <trkpt lat="60.001827462" lon="23.4097885611">
        <ele>28</ele>
        <time>2012-02-20T20:05:41Z</time>
      </trkpt>
      <trkpt lat="60.0018759093" lon="23.4094859745">
        <ele>29</ele>
        <time>2012-02-20T20:05:46Z</time>
      </trkpt>
      <trkpt lat="60.0019543639" lon="23.4091600862">
        <ele>29.6</ele>
        <time>2012-02-20T20:05:51Z</time>
      </trkpt>
      <trkpt lat="60.0020340758" lon="23.4088742634">
        <ele>30.2</ele>
        <time>2012-02-20T20:05:56Z</time>
      </trkpt>
      <trkpt lat="60.0021796694" lon="23.4085948109">
        <ele>31.2</ele>
        <time>2012-02-20T20:06:02Z</time>
      </trkpt>
      <trkpt lat="60.0023265203" lon="23.4084166955">
        <ele>31.8</ele>
        <time>2012-02-20T20:06:07Z</time>
      </trkpt>
      <trkpt lat="60.0025057253" lon="23.4081879535">
        <ele>32</ele>
        <time>2012-02-20T20:06:13Z</time>
      </trkpt>
      <trkpt lat="60.0026780572" lon="23.4079555234">
        <ele>32.2</ele>
        <time>2012-02-20T20:06:19Z</time>
      </trkpt>
      <trkpt lat="60.0028359722" lon="23.4076768252">
        <ele>32.4</ele>
        <time>2012-02-20T20:06:25Z</time>
      </trkpt>
      <trkpt lat="60.0029162708" lon="23.4075482468">
        <ele>34.4</ele>
        <time>2012-02-20T20:06:50Z</time>
      </trkpt>
      <trkpt lat="60.002912918" lon="23.407502314">
        <ele>34.4</ele>
        <time>2012-02-20T20:06:57Z</time>
      </trkpt>
      <trkpt lat="60.002932364" lon="23.4075282141">
        <ele>34.6</ele>
        <time>2012-02-20T20:07:11Z</time>
      </trkpt>
      <trkpt lat="60.002959689" lon="23.4075554553">
        <ele>34.6</ele>
        <time>2012-02-20T20:07:15Z</time>
      </trkpt>
      <trkpt lat="60.0029341242" lon="23.4075742307">
        <ele>34.6</ele>
        <time>2012-02-20T20:07:21Z</time>
      </trkpt>
      <trkpt lat="60.0029191206" lon="23.4075388591">
        <ele>34.6</ele>
        <time>2012-02-20T20:07:27Z</time>
      </trkpt>
      <trkpt lat="60.0029174442" lon="23.4075783379">
        <ele>34.6</ele>
        <time>2012-02-20T20:07:48Z</time>
      </trkpt>
      <trkpt lat="60.0029047876" lon="23.4076204988">
        <ele>34.6</ele>
        <time>2012-02-20T20:07:54Z</time>
      </trkpt>
      <trkpt lat="60.0028492156" lon="23.4076807647">
        <ele>34.6</ele>
        <time>2012-02-20T20:08:00Z</time>
      </trkpt>
      <trkpt lat="60.0027964096" lon="23.4077815151">
        <ele>34.6</ele>
        <time>2012-02-20T20:08:07Z</time>
      </trkpt>
      <trkpt lat="60.0027472079" lon="23.407881595">
        <ele>34.2</ele>
        <time>2012-02-20T20:08:15Z</time>
      </trkpt>
      <trkpt lat="60.0027399994" lon="23.4078923238">
        <ele>34</ele>
        <time>2012-02-20T20:08:16Z</time>
      </trkpt>
      <trkpt lat="60.0026833378" lon="23.4079737121">
        <ele>33.2</ele>
        <time>2012-02-20T20:08:23Z</time>
      </trkpt>
      <trkpt lat="60.0026146062" lon="23.4080841855">
        <ele>32.8</ele>
        <time>2012-02-20T20:08:30Z</time>
      </trkpt>
      <trkpt lat="60.0025423542" lon="23.4081851036">
        <ele>32.6</ele>
        <time>2012-02-20T20:08:37Z</time>
      </trkpt>
      <trkpt lat="60.0024642349" lon="23.4082917214">
        <ele>32.6</ele>
        <time>2012-02-20T20:08:45Z</time>
      </trkpt>
      <trkpt lat="60.0023739618" lon="23.4084064696">
        <ele>32</ele>
        <time>2012-02-20T20:08:54Z</time>
      </trkpt>
      <trkpt lat="60.0022664221" lon="23.4085370596">
        <ele>31</ele>
        <time>2012-02-20T20:09:04Z</time>
      </trkpt>
      <trkpt lat="60.0021620674" lon="23.4086899454">
        <ele>30.6</ele>
        <time>2012-02-20T20:09:14Z</time>
      </trkpt>
      <trkpt lat="60.0020888096" lon="23.4088385565">
        <ele>30.6</ele>
        <time>2012-02-20T20:09:21Z</time>
      </trkpt>
      <trkpt lat="60.0019956867" lon="23.409147681">
        <ele>30.4</ele>
        <time>2012-02-20T20:09:28Z</time>
      </trkpt>
      <trkpt lat="60.0019232671" lon="23.4094879861">
        <ele>30.4</ele>
        <time>2012-02-20T20:09:35Z</time>
      </trkpt>
      <trkpt lat="60.0018823634" lon="23.4097403652">
        <ele>30.4</ele>
        <time>2012-02-20T20:09:40Z</time>
      </trkpt>
      <trkpt lat="60.0018355924" lon="23.4100356595">
        <ele>30.4</ele>
        <time>2012-02-20T20:09:46Z</time>
      </trkpt>
      <trkpt lat="60.0017951916" lon="23.4102849372">
        <ele>30.4</ele>
        <time>2012-02-20T20:09:51Z</time>
      </trkpt>
      <trkpt lat="60.0017503485" lon="23.410594816">
        <ele>30.4</ele>
        <time>2012-02-20T20:09:57Z</time>
      </trkpt>
      <trkpt lat="60.0017113726" lon="23.4108561637">
        <ele>30.4</ele>
        <time>2012-02-20T20:10:02Z</time>
      </trkpt>
      <trkpt lat="60.0016540405" lon="23.4111669645">
        <ele>30.4</ele>
        <time>2012-02-20T20:10:08Z</time>
      </trkpt>
      <trkpt lat="60.0016095326" lon="23.411489081">
        <ele>30.4</ele>
        <time>2012-02-20T20:10:14Z</time>
      </trkpt>
      <trkpt lat="60.0015739933" lon="23.4117008077">
        <ele>30.4</ele>
        <time>2012-02-20T20:10:18Z</time>
      </trkpt>
      <trkpt lat="60.0015440699" lon="23.4119724651">
        <ele>30.4</ele>
        <time>2012-02-20T20:10:23Z</time>
      </trkpt>
      <trkpt lat="60.0015120511" lon="23.4123411849">
        <ele>30.4</ele>
        <time>2012-02-20T20:10:30Z</time>
      </trkpt>
      <trkpt lat="60.0014895876" lon="23.4127109943">
        <ele>30.4</ele>
        <time>2012-02-20T20:10:37Z</time>
      </trkpt>
      <trkpt lat="60.001464861" lon="23.4130458512">
        <ele>30.4</ele>
        <time>2012-02-20T20:10:43Z</time>
      </trkpt>
      <trkpt lat="60.001442146" lon="23.413380289">
        <ele>30.4</ele>
        <time>2012-02-20T20:10:49Z</time>
      </trkpt>
      <trkpt lat="60.0014144858" lon="23.4137027407">
        <ele>30.4</ele>
        <time>2012-02-20T20:10:55Z</time>
      </trkpt>
      <trkpt lat="60.0013838918" lon="23.4140702871">
        <ele>29.6</ele>
        <time>2012-02-20T20:11:02Z</time>
      </trkpt>
      <trkpt lat="60.0013663736" lon="23.4143377535">
        <ele>29</ele>
        <time>2012-02-20T20:11:07Z</time>
      </trkpt>
      <trkpt lat="60.0013493584" lon="23.4145985144">
        <ele>28.8</ele>
        <time>2012-02-20T20:11:12Z</time>
      </trkpt>
      <trkpt lat="60.0013289904" lon="23.4149133386">
        <ele>28.6</ele>
        <time>2012-02-20T20:11:18Z</time>
      </trkpt>
      <trkpt lat="60.0013080356" lon="23.4152253967">
        <ele>28.4</ele>
        <time>2012-02-20T20:11:24Z</time>
      </trkpt>
      <trkpt lat="60.0012780284" lon="23.4155552245">
        <ele>28.4</ele>
        <time>2012-02-20T20:11:30Z</time>
      </trkpt>
      <trkpt lat="60.0012366218" lon="23.4158301508">
        <ele>28.4</ele>
        <time>2012-02-20T20:11:35Z</time>
      </trkpt>
      <trkpt lat="60.0011731709" lon="23.4160954379">
        <ele>28.4</ele>
        <time>2012-02-20T20:11:41Z</time>
      </trkpt>
      <trkpt lat="60.0010956383" lon="23.4162777442">
        <ele>28.4</ele>
        <time>2012-02-20T20:11:45Z</time>
      </trkpt>
      <trkpt lat="60.0009686525" lon="23.41654739">
        <ele>28.4</ele>
        <time>2012-02-20T20:11:52Z</time>
      </trkpt>
      <trkpt lat="60.0008435945" lon="23.4167745395">
        <ele>28.4</ele>
        <time>2012-02-20T20:11:58Z</time>
      </trkpt>
      <trkpt lat="60.0007329535" lon="23.4169333765">
        <ele>28.4</ele>
        <time>2012-02-20T20:12:03Z</time>
      </trkpt>
      <trkpt lat="60.0006166965" lon="23.4171342906">
        <ele>28.4</ele>
        <time>2012-02-20T20:12:08Z</time>
      </trkpt>
      <trkpt lat="60.0004843463" lon="23.4173674751">
        <ele>28.4</ele>
        <time>2012-02-20T20:12:14Z</time>
      </trkpt>
      <trkpt lat="60.0003424407" lon="23.4175745918">
        <ele>28.4</ele>
        <time>2012-02-20T20:12:20Z</time>
      </trkpt>
      <trkpt lat="60.0002249265" lon="23.4177596642">
        <ele>27.6</ele>
        <time>2012-02-20T20:12:25Z</time>
      </trkpt>
      <trkpt lat="60.0000862061" lon="23.4179667809">
        <ele>27</ele>
        <time>2012-02-20T20:12:31Z</time>
      </trkpt>
      <trkpt lat="60.0000405247" lon="23.4180345905">
        <ele>27</ele>
        <time>2012-02-20T20:12:33Z</time>
      </trkpt>
      <trkpt lat="59.9998277083" lon="23.4183655917">
        <ele>26.6</ele>
        <time>2012-02-20T20:12:42Z</time>
      </trkpt>
      <trkpt lat="59.9997016445" lon="23.4186116843">
        <ele>26.4</ele>
        <time>2012-02-20T20:12:48Z</time>
      </trkpt>
      <trkpt lat="59.9995910872" lon="23.4188158674">
        <ele>26.2</ele>
        <time>2012-02-20T20:12:53Z</time>
      </trkpt>
      <trkpt lat="59.9994661131" lon="23.4190677435">
        <ele>25.4</ele>
        <time>2012-02-20T20:12:59Z</time>
      </trkpt>
      <trkpt lat="59.9993423963" lon="23.4193181946">
        <ele>24.8</ele>
        <time>2012-02-20T20:13:05Z</time>
      </trkpt>
      <trkpt lat="59.9992302464" lon="23.419497232">
        <ele>24.2</ele>
        <time>2012-02-20T20:13:10Z</time>
      </trkpt>
      <trkpt lat="59.9991168393" lon="23.4196442506">
        <ele>23.4</ele>
        <time>2012-02-20T20:13:15Z</time>
      </trkpt>
      <trkpt lat="59.998966971" lon="23.4197891736">
        <ele>23</ele>
        <time>2012-02-20T20:13:21Z</time>
      </trkpt>
      <trkpt lat="59.9988129116" lon="23.4199482621">
        <ele>21.8</ele>
        <time>2012-02-20T20:13:27Z</time>
      </trkpt>
      <trkpt lat="59.9986461956" lon="23.4201322448">
        <ele>21</ele>
        <time>2012-02-20T20:13:34Z</time>
      </trkpt>
      <trkpt lat="59.9984700081" lon="23.4203115336">
        <ele>20.2</ele>
        <time>2012-02-20T20:13:41Z</time>
      </trkpt>
      <trkpt lat="59.99829315" lon="23.4204625755">
        <ele>19.2</ele>
        <time>2012-02-20T20:13:48Z</time>
      </trkpt>
      <trkpt lat="59.9981026294" lon="23.4205167225">
        <ele>18.6</ele>
        <time>2012-02-20T20:13:55Z</time>
      </trkpt>
      <trkpt lat="59.9979992806" lon="23.4205088435">
        <ele>18.4</ele>
        <time>2012-02-20T20:13:59Z</time>
      </trkpt>
      <trkpt lat="59.9978171419" lon="23.4204950972">
        <ele>17.2</ele>
        <time>2012-02-20T20:14:06Z</time>
      </trkpt>
      <trkpt lat="59.9976567123" lon="23.4205125316">
        <ele>16.6</ele>
        <time>2012-02-20T20:14:12Z</time>
      </trkpt>
      <trkpt lat="59.9975081851" lon="23.4205960991">
        <ele>16.4</ele>
        <time>2012-02-20T20:14:18Z</time>
      </trkpt>
      <trkpt lat="59.9973311593" lon="23.4206924071">
        <ele>15.4</ele>
        <time>2012-02-20T20:14:25Z</time>
      </trkpt>
      <trkpt lat="59.9971503618" lon="23.4207665031">
        <ele>14.6</ele>
        <time>2012-02-20T20:14:32Z</time>
      </trkpt>
      <trkpt lat="59.9970152455" lon="23.4207608873">
        <ele>14.4</ele>
        <time>2012-02-20T20:14:37Z</time>
      </trkpt>
      <trkpt lat="59.9967289198" lon="23.4206186464">
        <ele>14.2</ele>
        <time>2012-02-20T20:14:48Z</time>
      </trkpt>
      <trkpt lat="59.9966005091" lon="23.42051974">
        <ele>14</ele>
        <time>2012-02-20T20:14:53Z</time>
      </trkpt>
      <trkpt lat="59.9964431809" lon="23.4203995436">
        <ele>14</ele>
        <time>2012-02-20T20:14:59Z</time>
      </trkpt>
      <trkpt lat="59.9963010238" lon="23.4202662714">
        <ele>14</ele>
        <time>2012-02-20T20:15:05Z</time>
      </trkpt>
      <trkpt lat="59.9961654047" lon="23.4202129625">
        <ele>14</ele>
        <time>2012-02-20T20:15:10Z</time>
      </trkpt>
      <trkpt lat="59.9960028797" lon="23.4202290557">
        <ele>14</ele>
        <time>2012-02-20T20:15:16Z</time>
      </trkpt>
      <trkpt lat="59.9958557773" lon="23.4203793432">
        <ele>14</ele>
        <time>2012-02-20T20:15:22Z</time>
      </trkpt>
      <trkpt lat="59.9957644984" lon="23.420602637">
        <ele>13.4</ele>
        <time>2012-02-20T20:15:27Z</time>
      </trkpt>
      <trkpt lat="59.9956902348" lon="23.4208852747">
        <ele>12.8</ele>
        <time>2012-02-20T20:15:33Z</time>
      </trkpt>
      <trkpt lat="59.9956059967" lon="23.4211760428">
        <ele>12.4</ele>
        <time>2012-02-20T20:15:39Z</time>
      </trkpt>
      <trkpt lat="59.9955148854" lon="23.4215265738">
        <ele>12.2</ele>
        <time>2012-02-20T20:15:46Z</time>
      </trkpt>
      <trkpt lat="59.9954198347" lon="23.4218768534">
        <ele>12</ele>
        <time>2012-02-20T20:15:53Z</time>
      </trkpt>
      <trkpt lat="59.9953589821" lon="23.4221217726">
        <ele>12</ele>
        <time>2012-02-20T20:15:58Z</time>
      </trkpt>
      <trkpt lat="59.9952837965" lon="23.4224687832">
        <ele>12</ele>
        <time>2012-02-20T20:16:05Z</time>
      </trkpt>
      <trkpt lat="59.9952434795" lon="23.422869438">
        <ele>12</ele>
        <time>2012-02-20T20:16:12Z</time>
      </trkpt>
      <trkpt lat="59.9952363549" lon="23.4230809972">
        <ele>12</ele>
        <time>2012-02-20T20:16:16Z</time>
      </trkpt>
      <trkpt lat="59.9952275539" lon="23.4234451069">
        <ele>12</ele>
        <time>2012-02-20T20:16:23Z</time>
      </trkpt>
      <trkpt lat="59.9952065992" lon="23.4237328576">
        <ele>12</ele>
        <time>2012-02-20T20:16:28Z</time>
      </trkpt>
      <trkpt lat="59.9951649411" lon="23.4240569856">
        <ele>12</ele>
        <time>2012-02-20T20:16:34Z</time>
      </trkpt>
      <trkpt lat="59.9951092853" lon="23.4243060119">
        <ele>12</ele>
        <time>2012-02-20T20:16:39Z</time>
      </trkpt>
      <trkpt lat="59.9949830539" lon="23.4244728955">
        <ele>12.2</ele>
        <time>2012-02-20T20:16:45Z</time>
      </trkpt>
      <trkpt lat="59.9948362868" lon="23.4245835366">
        <ele>13</ele>
        <time>2012-02-20T20:16:51Z</time>
      </trkpt>
      <trkpt lat="59.9947043557" lon="23.4247340755">
        <ele>13.4</ele>
        <time>2012-02-20T20:16:57Z</time>
      </trkpt>
      <trkpt lat="59.9945974865" lon="23.4249081676">
        <ele>13.6</ele>
        <time>2012-02-20T20:17:02Z</time>
      </trkpt>
      <trkpt lat="59.9945016814" lon="23.4250988558">
        <ele>13.8</ele>
        <time>2012-02-20T20:17:07Z</time>
      </trkpt>
      <trkpt lat="59.9943953989" lon="23.425351151">
        <ele>13.8</ele>
        <time>2012-02-20T20:17:13Z</time>
      </trkpt>
      <trkpt lat="59.9942905413" lon="23.4256115766">
        <ele>14</ele>
        <time>2012-02-20T20:17:19Z</time>
      </trkpt>
      <trkpt lat="59.994207812" lon="23.4258139995">
        <ele>14</ele>
        <time>2012-02-20T20:17:24Z</time>
      </trkpt>
      <trkpt lat="59.9940993502" lon="23.4261075336">
        <ele>14</ele>
        <time>2012-02-20T20:17:31Z</time>
      </trkpt>
      <trkpt lat="59.9941001884" lon="23.4261532988">
        <ele>14</ele>
        <time>2012-02-20T20:17:32Z</time>
      </trkpt>
      <trkpt lat="59.9941639746" lon="23.4262796979">
        <ele>14</ele>
        <time>2012-02-20T20:17:36Z</time>
      </trkpt>
      <trkpt lat="59.9942909604" lon="23.4264966214">
        <ele>14</ele>
        <time>2012-02-20T20:17:42Z</time>
      </trkpt>
      <trkpt lat="59.9944342071" lon="23.4267722183">
        <ele>14</ele>
        <time>2012-02-20T20:17:49Z</time>
      </trkpt>
      <trkpt lat="59.9945435909" lon="23.4269466457">
        <ele>14</ele>
        <time>2012-02-20T20:17:54Z</time>
      </trkpt>
      <trkpt lat="59.9946653799" lon="23.4270741344">
        <ele>14</ele>
        <time>2012-02-20T20:17:59Z</time>
      </trkpt>
      <trkpt lat="59.9947921142" lon="23.4271750524">
        <ele>14</ele>
        <time>2012-02-20T20:18:04Z</time>
      </trkpt>
      <trkpt lat="59.9948439982" lon="23.4272229131">
        <ele>14</ele>
        <time>2012-02-20T20:18:09Z</time>
      </trkpt>
      <trkpt lat="59.9948465965" lon="23.4272229131">
        <ele>14</ele>
        <time>2012-02-20T20:18:12Z</time>
      </trkpt>
    </trkseg>
  </trk>
</gpx>